createdAt,value
2022-08-05T00:00:50.956Z,98005.06
2022-08-05T00:03:53.048Z,98003.00
2022-08-05T00:06:59.835Z,97995.25
2022-08-05T00:10:02.288Z,97996.25
2022-08-05T00:13:04.667Z,97995.66
2022-08-05T00:16:09.314Z,97999.53
2022-08-05T00:19:12.954Z,98002.41
2022-08-05T00:22:14.726Z,97993.41
2022-08-05T00:25:19.776Z,98000.56
2022-08-05T00:28:29.628Z,97998.91
2022-08-05T00:31:54.494Z,98003.84
2022-08-05T00:35:07.737Z,97996.06
2022-08-05T00:38:09.871Z,97996.66
2022-08-05T00:41:12.120Z,97999.34
2022-08-05T00:44:14.215Z,97998.09
2022-08-05T00:47:16.446Z,98000.78
2022-08-05T00:50:20.913Z,97997.69
2022-08-05T00:54:00.110Z,98002.00
2022-08-05T00:56:51.306Z,97992.78
2022-08-05T00:59:53.669Z,97998.91
2022-08-05T01:02:57.186Z,97989.53
2022-08-05T01:05:59.168Z,97995.25
2022-08-05T01:09:01.046Z,97997.09
2022-08-05T01:12:18.411Z,97990.34
2022-08-05T01:15:36.027Z,97981.13
2022-08-05T01:18:48.189Z,97990.34
2022-08-05T01:22:18.960Z,97981.56
2022-08-05T01:25:40.096Z,97981.97
2022-08-05T01:28:48.913Z,97976.00
2022-08-05T01:31:55.467Z,97977.84
2022-08-05T01:34:57.957Z,97970.28
2022-08-05T01:38:02.326Z,97968.03
2022-08-05T01:41:07.069Z,97969.88
2022-08-05T01:44:11.303Z,97965.38
2022-08-05T01:47:15.871Z,97968.25
2022-08-05T01:50:28.509Z,97969.47
2022-08-05T01:53:57.252Z,97970.28
2022-08-05T01:58:10.380Z,97952.06
2022-08-05T02:00:16.558Z,97955.91
2022-08-05T02:03:32.106Z,97951.41
2022-08-05T02:06:38.615Z,97956.31
2022-08-05T02:09:41.085Z,97949.56
2022-08-05T02:13:00.808Z,97953.88
2022-08-05T02:16:09.481Z,97950.59
2022-08-05T02:19:27.493Z,97957.94
2022-08-05T02:22:42.517Z,97947.94
2022-08-05T02:25:49.552Z,97951.22
2022-08-05T02:28:53.079Z,97959.19
2022-08-05T02:31:57.675Z,97956.72
2022-08-05T02:35:02.144Z,97953.66
2022-08-05T02:38:19.506Z,97958.38
2022-08-05T02:41:28.806Z,97960.56
2022-08-05T02:44:44.830Z,97957.91
2022-08-05T02:48:06.654Z,97960.56
2022-08-05T02:51:11.348Z,97960.78
2022-08-05T02:54:34.890Z,97955.44
2022-08-05T02:58:09.248Z,97953.19
2022-08-05T03:01:02.548Z,97955.44
2022-08-05T03:04:12.310Z,97951.34
2022-08-05T03:07:40.407Z,97953.44
2022-08-05T03:10:44.781Z,97957.69
2022-08-05T03:14:08.090Z,97956.41
2022-08-05T03:17:10.771Z,97965.63
2022-08-05T03:20:13.378Z,97950.06
2022-08-05T03:23:15.810Z,97954.97
2022-08-05T03:26:31.755Z,97964.34
2022-08-05T03:29:45.796Z,97958.44
2022-08-05T03:32:56.847Z,97957.41
2022-08-05T03:35:59.251Z,97958.19
2022-08-05T03:39:08.221Z,97950.84
2022-08-05T03:42:15.016Z,97952.88
2022-08-05T03:45:22.669Z,97954.53
2022-08-05T03:48:26.569Z,97950.03
2022-08-05T03:52:38.732Z,97953.53
2022-08-05T03:56:00.949Z,97946.78
2022-08-05T03:58:36.231Z,97953.38
2022-08-05T04:01:40.831Z,97956.88
2022-08-05T04:04:44.876Z,97959.97
2022-08-05T04:07:58.525Z,97959.16
2022-08-05T04:11:02.121Z,97957.94
2022-08-05T04:14:04.617Z,97955.72
2022-08-05T04:17:08.970Z,97960.47
2022-08-05T04:20:23.178Z,97961.50
2022-08-05T04:24:01.099Z,97953.41
2022-08-05T04:26:54.321Z,97948.75
2022-08-05T04:29:56.317Z,97943.81
2022-08-05T04:32:58.179Z,97948.75
2022-08-05T04:36:10.945Z,97946.59
2022-08-05T04:39:21.938Z,97948.72
2022-08-05T04:42:25.547Z,97949.94
2022-08-05T04:45:47.791Z,97946.72
2022-08-05T04:48:51.600Z,97943.69
2022-08-05T04:52:00.397Z,97938.69
2022-08-05T04:55:14.899Z,97936.94
2022-08-05T04:58:21.501Z,97932.94
2022-08-05T05:02:35.656Z,97932.06
2022-08-05T05:05:02.404Z,97935.72
2022-08-05T05:08:14.500Z,97929.59
2022-08-05T05:11:41.440Z,97936.34
2022-08-05T05:14:53.663Z,97933.94
2022-08-05T05:17:57.882Z,97931.09
2022-08-05T05:21:00.171Z,97935.63
2022-08-05T05:24:08.929Z,97944.03
2022-08-05T05:27:11.306Z,97935.97
2022-08-05T05:30:30.790Z,97937.56
2022-08-05T05:33:58.934Z,97940.84
2022-08-05T05:36:56.019Z,97944.06
2022-08-05T05:39:57.869Z,97939.00
2022-08-05T05:43:00.785Z,97945.94
2022-08-05T05:46:04.094Z,97941.38
2022-08-05T05:49:13.526Z,97940.66
2022-08-05T05:52:31.360Z,97944.59
2022-08-05T05:55:52.013Z,97944.75
2022-08-05T05:58:58.443Z,97943.75
2022-08-05T06:02:05.697Z,97941.97
2022-08-05T06:05:17.000Z,97946.03
2022-08-05T06:08:32.654Z,97952.06
2022-08-05T06:11:35.325Z,97945.97
2022-08-05T06:14:44.453Z,97940.13
2022-08-05T06:17:53.613Z,97933.28
2022-08-05T06:20:57.372Z,97935.00
2022-08-05T06:23:59.918Z,97938.31
2022-08-05T06:27:04.018Z,97941.84
2022-08-05T06:30:17.674Z,97951.97
2022-08-05T06:33:33.434Z,97945.00
2022-08-05T06:36:57.065Z,97948.50
2022-08-05T06:40:00.507Z,97945.00
2022-08-05T06:43:04.636Z,97947.81
2022-08-05T06:46:07.323Z,97949.44
2022-08-05T06:49:12.130Z,97947.81
2022-08-05T06:52:37.650Z,97955.13
2022-08-05T06:55:36.684Z,97946.22
2022-08-05T06:58:39.175Z,97955.94
2022-08-05T07:01:42.557Z,97949.09
2022-08-05T07:04:44.525Z,97952.59
2022-08-05T07:07:49.359Z,97955.03
2022-08-05T07:10:52.967Z,97951.13
2022-08-05T07:14:20.202Z,97947.84
2022-08-05T07:18:02.123Z,97951.06
2022-08-05T07:20:44.747Z,97949.50
2022-08-05T07:23:49.209Z,97948.09
2022-08-05T07:26:52.900Z,97948.81
2022-08-05T07:30:28.013Z,97948.72
2022-08-05T07:33:36.983Z,97940.47
2022-08-05T07:36:39.530Z,97940.75
2022-08-05T07:40:26.285Z,97940.34
2022-08-05T07:43:04.894Z,97937.63
2022-08-05T07:46:25.541Z,97946.47
2022-08-05T07:49:27.937Z,97945.31
2022-08-05T07:52:29.857Z,97933.75
2022-08-05T07:56:05.646Z,97936.53
2022-08-05T07:58:57.412Z,97945.53
2022-08-05T08:02:04.178Z,97942.25
2022-08-05T08:05:06.227Z,97940.94
2022-08-05T08:08:12.416Z,97940.59
2022-08-05T08:11:16.042Z,97941.69
2022-08-05T08:14:19.071Z,97943.66
2022-08-05T08:17:21.690Z,97947.09
2022-08-05T08:21:00.472Z,97949.53
2022-08-05T08:24:03.163Z,97946.91
2022-08-05T08:27:07.446Z,97946.34
2022-08-05T08:30:29.554Z,97934.59
2022-08-05T08:33:37.448Z,97942.19
2022-08-05T08:36:50.143Z,97934.75
2022-08-05T08:39:54.510Z,97942.16
2022-08-05T08:42:56.899Z,97947.78
2022-08-05T08:46:19.487Z,97938.34
2022-08-05T08:50:11.319Z,97937.13
2022-08-05T08:53:00.728Z,97934.47
2022-08-05T08:56:06.052Z,97938.03
2022-08-05T08:59:14.830Z,97934.13
2022-08-05T09:02:26.876Z,97941.22
2022-08-05T09:05:38.965Z,97935.03
2022-08-05T09:08:51.109Z,97932.56
2022-08-05T09:11:55.362Z,97928.75
2022-08-05T09:15:06.723Z,97927.41
2022-08-05T09:18:09.781Z,97920.34
2022-08-05T09:21:20.913Z,97909.34
2022-08-05T09:24:25.703Z,97911.59
2022-08-05T09:28:03.915Z,97902.97
2022-08-05T09:31:22.831Z,97897.22
2022-08-05T09:34:48.474Z,97895.53
2022-08-05T09:38:17.207Z,97900.28
2022-08-05T09:41:17.574Z,97893.66
2022-08-05T09:44:52.175Z,97894.84
2022-08-05T09:47:56.499Z,97897.78
2022-08-05T09:51:14.890Z,97898.56
2022-08-05T09:54:28.904Z,97902.69
2022-08-05T09:57:43.234Z,97896.97
2022-08-05T10:00:57.165Z,97891.00
2022-08-05T10:04:14.152Z,97881.84
2022-08-05T10:07:20.227Z,97886.31
2022-08-05T10:10:40.257Z,97886.19
2022-08-05T10:13:47.728Z,97893.38
2022-08-05T10:16:53.584Z,97891.75
2022-08-05T10:20:04.563Z,97884.28
2022-08-05T10:24:00.033Z,97895.94
2022-08-05T10:27:00.431Z,97881.53
2022-08-05T10:30:41.155Z,97888.47
2022-08-05T10:33:29.793Z,97876.63
2022-08-05T10:36:39.944Z,97876.81
2022-08-05T10:40:03.138Z,97874.50
2022-08-05T10:43:51.065Z,97868.22
2022-08-05T10:46:56.629Z,97878.19
2022-08-05T10:50:20.862Z,97872.75
2022-08-05T10:53:45.185Z,97867.81
2022-08-05T10:56:57.924Z,97857.88
2022-08-05T11:00:20.073Z,97859.41
2022-08-05T11:03:27.155Z,97862.00
2022-08-05T11:06:31.341Z,97862.81
2022-08-05T11:09:46.206Z,97851.59
2022-08-05T11:12:54.998Z,97849.22
2022-08-05T11:16:33.907Z,97849.06
2022-08-05T11:20:10.449Z,97847.69
2022-08-05T11:23:57.083Z,97840.28
2022-08-05T11:27:51.645Z,97840.00
2022-08-05T11:31:06.138Z,97835.00
2022-08-05T11:34:15.091Z,97841.22
2022-08-05T11:38:30.972Z,97833.88
2022-08-05T11:41:34.758Z,97832.22
2022-08-05T11:44:54.043Z,97845.34
2022-08-05T11:47:58.117Z,97836.88
2022-08-05T11:51:03.756Z,97835.78
2022-08-05T11:54:08.262Z,97842.56
2022-08-05T11:57:39.360Z,97836.34
2022-08-05T12:00:38.515Z,97840.94
2022-08-05T12:03:55.625Z,97830.66
2022-08-05T12:07:02.746Z,97823.13
2022-08-05T12:10:09.263Z,97820.06
2022-08-05T12:13:28.020Z,97817.69
2022-08-05T12:16:45.356Z,97813.47
2022-08-05T12:20:26.718Z,97807.84
2022-08-05T12:23:20.663Z,97814.94
2022-08-05T12:26:23.959Z,97810.25
2022-08-05T12:29:38.764Z,97812.97
2022-08-05T12:32:50.334Z,97808.00
2022-08-05T12:35:53.047Z,97808.44
2022-08-05T12:38:57.698Z,97804.16
2022-08-05T12:42:00.814Z,97800.47
2022-08-05T12:45:09.402Z,97790.59
2022-08-05T12:48:27.202Z,97792.38
2022-08-05T12:52:13.552Z,97790.25
2022-08-05T12:55:25.165Z,97798.69
2022-08-05T12:58:39.161Z,97790.38
2022-08-05T13:02:07.647Z,97782.88
2022-08-05T13:05:14.471Z,97785.19
2022-08-05T13:08:18.709Z,97782.56
2022-08-05T13:12:02.600Z,97787.13
2022-08-05T13:15:06.728Z,97792.16
2022-08-05T13:18:11.055Z,97789.41
2022-08-05T13:21:21.006Z,97786.59
2022-08-05T13:24:27.787Z,97783.91
2022-08-05T13:27:50.285Z,97782.84
2022-08-05T13:30:53.355Z,97777.16
2022-08-05T13:34:22.600Z,97771.09
2022-08-05T13:37:27.224Z,97771.72
2022-08-05T13:40:49.964Z,97767.72
2022-08-05T13:43:55.692Z,97762.13
2022-08-05T13:47:01.649Z,97770.91
2022-08-05T13:50:11.304Z,97762.16
2022-08-05T13:53:17.106Z,97761.97
2022-08-05T13:56:19.664Z,97748.03
2022-08-05T13:59:27.020Z,97753.16
2022-08-05T14:02:34.883Z,97754.44
2022-08-05T14:06:04.977Z,97743.19
2022-08-05T14:09:00.524Z,97740.88
2022-08-05T14:12:17.657Z,97736.06
2022-08-05T14:16:04.560Z,97740.72
2022-08-05T14:18:43.655Z,97742.88
2022-08-05T14:22:09.500Z,97738.28
2022-08-05T14:25:21.499Z,97734.06
2022-08-05T14:28:26.690Z,97727.09
2022-08-05T14:32:02.188Z,97728.19
2022-08-05T14:34:52.757Z,97730.34
2022-08-05T14:37:57.115Z,97726.53
2022-08-05T14:41:06.563Z,97723.88
2022-08-05T14:44:20.489Z,97717.06
2022-08-05T14:48:03.700Z,97719.22
2022-08-05T14:50:47.513Z,97710.47
2022-08-05T14:54:25.960Z,97707.13
2022-08-05T14:57:14.089Z,97695.25
2022-08-05T15:00:19.999Z,97698.56
2022-08-05T15:03:23.499Z,97701.47
2022-08-05T15:06:27.940Z,97702.56
2022-08-05T15:09:53.727Z,97710.53
2022-08-05T15:13:03.325Z,97704.97
2022-08-05T15:16:13.092Z,97706.25
2022-08-05T15:19:23.447Z,97695.69
2022-08-05T15:22:27.024Z,97693.63
2022-08-05T15:25:51.484Z,97698.56
2022-08-05T15:28:54.416Z,97689.56
2022-08-05T15:32:02.368Z,97692.88
2022-08-05T15:35:10.821Z,97689.56
2022-08-05T15:38:35.648Z,97687.88
2022-08-05T15:41:56.091Z,97685.34
2022-08-05T15:44:59.719Z,97686.56
2022-08-05T15:48:04.062Z,97682.41
2022-08-05T15:51:06.484Z,97686.94
2022-08-05T15:54:09.326Z,97693.75
2022-08-05T15:57:17.942Z,97689.00
2022-08-05T16:00:32.640Z,97693.38
2022-08-05T16:03:45.229Z,97677.81
2022-08-05T16:06:51.962Z,97682.88
2022-08-05T16:09:54.873Z,97684.91
2022-08-05T16:12:57.353Z,97692.09
2022-08-05T16:15:59.716Z,97691.44
2022-08-05T16:19:04.690Z,97694.88
2022-08-05T16:22:10.747Z,97691.38
2022-08-05T16:25:16.534Z,97700.97
2022-08-05T16:28:19.598Z,97695.03
2022-08-05T16:31:22.340Z,97700.50
2022-08-05T16:34:25.326Z,97705.94
2022-08-05T16:38:02.783Z,97694.84
2022-08-05T16:40:59.769Z,97698.28
2022-08-05T16:44:07.655Z,97704.03
2022-08-05T16:47:28.908Z,97704.78
2022-08-05T16:50:33.189Z,97703.06
2022-08-05T16:54:05.394Z,97698.16
2022-08-05T16:56:58.923Z,97703.34
2022-08-05T17:00:08.603Z,97701.47
2022-08-05T17:03:19.593Z,97685.84
2022-08-05T17:06:24.692Z,97691.63
2022-08-05T17:09:29.510Z,97688.63
2022-08-05T17:12:51.439Z,97693.19
2022-08-05T17:16:02.792Z,97692.88
2022-08-05T17:19:17.931Z,97694.88
2022-08-05T17:22:25.512Z,97696.22
2022-08-05T17:25:39.469Z,97696.97
2022-08-05T17:28:42.809Z,97686.44
2022-08-05T17:31:58.403Z,97693.75
2022-08-05T17:35:03.240Z,97679.72
2022-08-05T17:38:09.925Z,97690.56
2022-08-05T17:42:16.822Z,97685.88
2022-08-05T17:44:36.381Z,97687.25
2022-08-05T17:47:39.560Z,97695.41
2022-08-05T17:50:41.985Z,97697.97
2022-08-05T17:53:45.258Z,97696.19
2022-08-05T17:56:55.143Z,97689.78
2022-08-05T18:00:03.772Z,97694.69
2022-08-05T18:03:08.146Z,97700.66
2022-08-05T18:06:12.332Z,97704.00
2022-08-05T18:09:18.982Z,97697.84
2022-08-05T18:12:24.444Z,97695.47
2022-08-05T18:15:27.788Z,97696.09
2022-08-05T18:18:39.692Z,97698.03
2022-08-05T18:22:07.667Z,97696.41
2022-08-05T18:25:06.752Z,97705.34
2022-08-05T18:28:10.467Z,97706.44
2022-08-05T18:31:12.970Z,97708.84
2022-08-05T18:34:18.083Z,97717.75
2022-08-05T18:37:34.667Z,97721.78
2022-08-05T18:41:56.549Z,97723.34
2022-08-05T18:44:07.761Z,97718.22
2022-08-05T18:47:10.548Z,97717.91
2022-08-05T18:50:50.103Z,97716.53
2022-08-05T18:53:55.367Z,97719.19
2022-08-05T18:56:57.853Z,97718.91
2022-08-05T19:00:11.636Z,97726.66
2022-08-05T19:03:16.027Z,97729.31
2022-08-05T19:06:21.905Z,97729.28
2022-08-05T19:09:24.572Z,97732.78
2022-08-05T19:12:29.492Z,97740.28
2022-08-05T19:15:57.677Z,97734.00
2022-08-05T19:18:56.820Z,97743.13
2022-08-05T19:22:01.351Z,97748.44
2022-08-05T19:25:04.049Z,97743.53
2022-08-05T19:28:06.618Z,97740.25
2022-08-05T19:31:13.575Z,97742.59
2022-08-05T19:34:20.337Z,97746.66
2022-08-05T19:37:35.117Z,97751.47
2022-08-05T19:40:47.708Z,97745.75
2022-08-05T19:44:05.887Z,97757.06
2022-08-05T19:47:15.057Z,97743.25
2022-08-05T19:50:20.495Z,97748.03
2022-08-05T19:54:03.614Z,97736.31
2022-08-05T19:56:50.052Z,97744.06
2022-08-05T19:59:59.332Z,97744.00
2022-08-05T20:03:13.554Z,97746.88
2022-08-05T20:06:29.368Z,97742.78
2022-08-05T20:09:53.969Z,97744.31
2022-08-05T20:12:55.311Z,97740.00
2022-08-05T20:15:57.940Z,97748.47
2022-08-05T20:19:00.914Z,97750.47
2022-08-05T20:22:03.559Z,97745.78
2022-08-05T20:25:08.514Z,97750.69
2022-08-05T20:28:13.579Z,97743.88
2022-08-05T20:31:21.647Z,97741.63
2022-08-05T20:34:25.103Z,97745.53
2022-08-05T20:38:06.405Z,97736.09
2022-08-05T20:40:51.920Z,97740.63
2022-08-05T20:43:59.736Z,97732.56
2022-08-05T20:47:07.587Z,97738.16
2022-08-05T20:50:11.498Z,97733.75
2022-08-05T20:53:16.064Z,97741.22
2022-08-05T20:56:42.146Z,97744.72
2022-08-05T21:00:11.121Z,97749.03
2022-08-05T21:03:08.146Z,97750.34
2022-08-05T21:06:28.189Z,97752.00
2022-08-05T21:09:32.240Z,97758.47
2022-08-05T21:12:38.428Z,97762.72
2022-08-05T21:15:50.947Z,97758.22
2022-08-05T21:18:53.513Z,97766.94
2022-08-05T21:21:58.089Z,97763.03
2022-08-05T21:25:00.186Z,97764.19
2022-08-05T21:28:03.514Z,97759.31
2022-08-05T21:31:06.922Z,97764.75
2022-08-05T21:34:10.416Z,97765.47
2022-08-05T21:37:13.395Z,97758.56
2022-08-05T21:40:16.649Z,97757.91
2022-08-05T21:43:24.698Z,97759.78
2022-08-05T21:46:27.057Z,97757.44
2022-08-05T21:49:56.508Z,97765.16
2022-08-05T21:52:58.929Z,97758.81
2022-08-05T21:56:16.759Z,97757.88
2022-08-05T21:59:24.307Z,97752.97
2022-08-05T22:02:32.104Z,97751.34
2022-08-05T22:05:48.061Z,97747.34
2022-08-05T22:08:52.898Z,97755.19
2022-08-05T22:11:55.304Z,97753.56
2022-08-05T22:14:58.865Z,97755.47
2022-08-05T22:18:03.098Z,97747.31
2022-08-05T22:21:05.099Z,97753.44
2022-08-05T22:24:52.504Z,97754.66
2022-08-05T22:28:10.224Z,97755.84
2022-08-05T22:31:13.482Z,97759.97
2022-08-05T22:34:25.396Z,97760.19
2022-08-05T22:37:59.071Z,97772.50
2022-08-05T22:40:54.994Z,97773.56
2022-08-05T22:43:59.675Z,97771.69
2022-08-05T22:47:05.000Z,97776.84
2022-08-05T22:50:20.000Z,97772.19
2022-08-05T22:53:26.761Z,97773.59
2022-08-05T22:56:40.071Z,97782.50
2022-08-05T22:59:51.808Z,97778.31
2022-08-05T23:02:56.472Z,97781.19
2022-08-05T23:06:00.321Z,97777.81
2022-08-05T23:09:14.639Z,97773.94
2022-08-05T23:12:28.448Z,97767.91
2022-08-05T23:15:35.151Z,97773.88
2022-08-05T23:18:38.553Z,97780.78
2022-08-05T23:21:42.821Z,97774.88
2022-08-05T23:24:51.094Z,97775.56
2022-08-05T23:28:00.158Z,97771.56
2022-08-05T23:31:16.933Z,97778.91
2022-08-05T23:34:24.728Z,97777.19
2022-08-05T23:37:34.244Z,97771.59
2022-08-05T23:40:40.429Z,97774.41
2022-08-05T23:44:06.385Z,97773.34
2022-08-05T23:47:15.089Z,97775.22
2022-08-05T23:50:20.227Z,97776.72
2022-08-05T23:53:23.339Z,97771.50
2022-08-05T23:56:30.507Z,97766.03
